Flight Track Log - Related Links

Times and Time Zones

All times are in EDT time to prevent confusion due to time zone crossing. See the CHH7087 flight status page for this flight to view local times or setup timezone preferences in your user account.

Time Position Orientation Groundspeed Altitude Reporting Facility
EDT Latitude Longitude Course Direction KTS MPH feet Rate Location/Type
Mon 08:52:00 PM 22.5121 106.8375 308° West  Level Estimated
Mon 08:53:00 PM 22.5618 106.7652 307° West  Level Estimated
Mon 08:54:00 PM 22.6115 106.6928 307° West  Level Estimated
Mon 08:55:00 PM 22.6612 106.6204 307° West  Level Estimated
Mon 08:56:00 PM 22.7108 106.5479 307° West  Level Estimated
Mon 08:57:00 PM 22.7605 106.4754 307° West  Level Estimated
Mon 08:58:00 PM 22.8100 106.4028 307° West  Level Estimated
Mon 08:59:00 PM 22.8596 106.3302 307° West  Level Estimated
Mon 09:00:00 PM 22.9091 106.2576 306° West  Level Estimated
Mon 09:01:00 PM 22.9586 106.1848 306° West  Level Estimated
Mon 09:02:00 PM 23.0080 106.1120 306° West  Level Estimated
Mon 09:03:00 PM 23.0574 106.0392 306° West  Level Estimated
Mon 09:04:00 PM 23.1068 105.9663 306° West  Level Estimated
Mon 09:05:00 PM 23.1561 105.8934 306° West  Level Estimated
Mon 09:06:00 PM 23.2055 105.8204 306° West  Level Estimated
Mon 09:07:00 PM 23.2547 105.7473 306° West  Level Estimated
Mon 09:08:00 PM 23.3040 105.6742 306° West  Level Estimated
Mon 09:09:00 PM 23.3532 105.6011 306° West  Level Estimated
Mon 09:10:00 PM 23.4023 105.5279 306° West  Level Estimated
Mon 09:11:00 PM 23.4515 105.4546 306° West  Level Estimated
Mon 09:12:00 PM 23.5006 105.3813 306° West  Level Estimated
Mon 09:13:00 PM 23.5497 105.3079 306° West  Level Estimated
Mon 09:14:00 PM 23.5987 105.2345 306° West  Level Estimated
Mon 09:15:00 PM 23.6477 105.1610 306° West  Level Estimated
Mon 09:16:00 PM 23.6967 105.0875 306° West  Level Estimated
Mon 09:17:00 PM 23.7456 105.0139 306° West  Level Estimated
Mon 09:18:00 PM 23.7945 104.9402 306° West  Level Estimated
Mon 09:19:00 PM 23.8434 104.8665 306° West  Level Estimated
Mon 09:20:00 PM 23.8922 104.7928 306° West  Level Estimated
Mon 09:21:00 PM 23.9410 104.7189 306° West  Level Estimated
Mon 09:22:00 PM 23.9897 104.6451 306° West  Level Estimated
Mon 09:23:00 PM 24.0385 104.5712 306° West  Level Estimated
Mon 09:24:00 PM 24.0872 104.4972 306° West  Level Estimated
Mon 09:25:00 PM 24.1358 104.4231 306° West  Level Estimated
Mon 09:26:00 PM 24.1844 104.3490 306° West  Level Estimated
Mon 09:27:00 PM 24.2330 104.2749 306° West  Level Estimated
Mon 09:28:00 PM 24.2816 104.2007 306° West  Level Estimated
Mon 09:29:00 PM 24.3301 104.1264 306° West  Level Estimated
Mon 09:30:00 PM 24.3785 104.0521 306° West  Level Estimated
Mon 09:31:00 PM 24.4270 103.9777 306° West  Level Estimated
Mon 09:32:00 PM 24.4754 103.9033 306° West  Level Estimated
Mon 09:33:00 PM 24.5237 103.8288 306° West  Level Estimated
Mon 09:34:00 PM 24.5721 103.7542 305° West  Level Estimated
Mon 09:35:00 PM 24.6203 103.6796 305° West  Level Estimated
Mon 09:36:00 PM 24.6686 103.6049 305° West  Level Estimated
Mon 09:37:00 PM 24.7168 103.5302 305° West  Level Estimated
Mon 09:38:00 PM 24.7650 103.4554 305° West  Level Estimated
Mon 09:39:00 PM 24.8131 103.3806 305° West  Level Estimated
Mon 09:40:00 PM 24.8612 103.3057 305° West  Level Estimated
Mon 09:41:00 PM 24.9093 103.2307 305° West  Level Estimated
Mon 09:42:00 PM 24.9573 103.1557 305° West  Level Estimated
Mon 09:43:00 PM 25.0053 103.0807 305° West  Level Estimated
Mon 09:44:00 PM 25.0533 103.0055 305° West  Level Estimated
Mon 09:45:00 PM 25.1012 102.9303 305° West  Level Estimated
Mon 09:46:00 PM 25.1019 102.9292 305° West  Level Estimated
Mon 09:47:00 PM 25.1019 102.9292 North  Level Estimated
Mon 09:48:00 PM 25.1019 102.9292 North  Level Estimated
Mon 09:49:00 PM 25.1019 102.9292 North  Level Estimated
Mon 09:50:00 PM 25.1019 102.9292 North  Level Estimated
Mon 09:51:00 PM 25.1019 102.9292 North  Level Estimated
Mon 09:52:00 PM 25.1019 102.9292 North  Level Estimated
Mon 09:53:00 PM 25.1019 102.9292 North  Level Estimated
Mon 09:54:00 PM 25.1019 102.9292 North  Level Estimated
Mon 09:55:00 PM 25.1019 102.9292 North  Level Estimated
Mon 09:56:00 PM 25.1019 102.9292 North  Level Estimated
Mon 09:57:00 PM 25.1019 102.9292 North  Level Estimated
Mon 09:58:00 PM 25.1019 102.9292 North  Level Estimated
Mon 09:59:00 PM 25.1019 102.9292 North  Level Estimated
Mon 10:00:00 PM 25.1019 102.9292 North  Level Estimated
Mon 10:01:00 PM 25.1019 102.9292 North  Level Estimated

Login

Don't have an account? Register now (free) for customized features, flight alerts, and more!